Time;durP1;ratioP1;P1;durP2;ratioP2;P2;SDS_P1;SDS_P2;PMS_P1;PMS_P2;Temp;Humidity;BMP_temperature;BMP_pressure;BME280_temperature;BME280_humidity;BME280_pressure;Samples;Min_cycle;Max_cycle;Signal;HPM_P1;HPM_P2
2022/09/03 00:01:50;;;;;;;3.63;2.30;;;;;;;16.81;45.42;100989.13;5046411;28;20071;-76
2022/09/03 00:04:24;;;;;;;3.38;2.13;;;;;;;16.80;45.82;100991.84;5050005;28;20032;-76
2022/09/03 00:06:59;;;;;;;3.55;2.17;;;;;;;16.76;46.31;100991.13;5031666;28;20056;-77
2022/09/03 00:09:30;;;;;;;4.72;2.22;;;;;;;16.74;46.17;100990.34;5046257;28;20492;-76
2022/09/03 00:12:13;;;;;;;3.60;1.85;;;;;;;16.74;45.96;100986.91;5050156;28;20029;-76
2022/09/03 00:14:57;;;;;;;4.18;2.25;;;;;;;16.73;45.90;100991.31;5046998;28;20029;-77
2022/09/03 00:17:28;;;;;;;3.30;2.30;;;;;;;16.68;46.58;100988.06;5049375;28;20090;-77
2022/09/03 00:20:00;;;;;;;8.45;2.50;;;;;;;16.66;46.66;100990.75;5048323;28;20028;-76
2022/09/03 00:22:32;;;;;;;3.97;2.10;;;;;;;16.63;46.65;100990.03;5047274;28;20028;-77
2022/09/03 00:25:01;;;;;;;4.32;2.22;;;;;;;16.60;46.85;100992.81;5049132;28;20170;-77
2022/09/03 00:27:28;;;;;;;5.15;2.30;;;;;;;16.58;47.09;100985.03;5045743;28;20068;-77
2022/09/03 00:30:02;;;;;;;4.40;2.30;;;;;;;16.56;46.64;100996.53;5050444;28;20487;-77
2022/09/03 00:33:09;;;;;;;2.97;2.10;;;;;;;16.55;46.24;100982.53;5047179;28;20442;-77
2022/09/03 00:35:42;;;;;;;5.35;2.17;;;;;;;16.51;46.71;100991.50;4998507;28;20052;-76
2022/09/03 00:38:08;;;;;;;4.40;2.33;;;;;;;16.48;47.11;100984.63;5048758;28;20472;-76
2022/09/03 00:40:45;;;;;;;5.45;2.33;;;;;;;16.45;47.41;100986.56;5048320;28;20048;-77
2022/09/03 00:43:21;;;;;;;3.92;2.28;;;;;;;16.43;46.94;100989.22;5048535;28;20021;-77
2022/09/03 00:46:19;;;;;;;4.93;2.30;;;;;;;16.41;46.76;100987.63;5049340;28;20036;-77
2022/09/03 00:48:59;;;;;;;2.95;2.33;;;;;;;16.38;46.59;100980.75;5051793;28;20025;-77
2022/09/03 00:51:41;;;;;;;3.42;2.40;;;;;;;16.35;47.25;100986.97;5050022;28;20033;-77
2022/09/03 00:54:37;;;;;;;3.75;2.30;;;;;;;16.34;46.98;100990.53;5045516;28;20468;-77
2022/09/03 00:57:34;;;;;;;4.70;2.33;;;;;;;16.32;47.19;100991.53;5050179;28;20041;-77
2022/09/03 01:00:13;;;;;;;3.78;2.50;;;;;;;16.29;47.67;100992.53;5031917;28;20419;-76
2022/09/03 01:03:09;;;;;;;3.83;2.28;;;;;;;16.29;47.29;100989.91;5051629;28;20473;-76
2022/09/03 01:05:46;;;;;;;5.50;2.42;;;;;;;16.30;47.57;100982.88;5035647;28;20365;-76
2022/09/03 01:08:31;;;;;;;5.63;2.55;;;;;;;16.28;47.19;100984.72;5049778;28;20563;-76
2022/09/03 01:11:25;;;;;;;4.57;2.30;;;;;;;16.26;47.14;100986.56;5047345;28;20029;-76
2022/09/03 01:14:08;;;;;;;4.18;2.40;;;;;;;16.21;47.97;100976.28;5050927;28;20021;-76
2022/09/03 01:16:50;;;;;;;3.47;2.25;;;;;;;16.20;47.76;100987.72;5048877;28;20524;-76
2022/09/03 01:19:43;;;;;;;4.72;2.30;;;;;;;16.18;47.49;100985.16;5050764;28;20024;-77
2022/09/03 01:22:40;;;;;;;5.15;2.50;;;;;;;16.15;47.57;101001.06;5051754;28;20369;-77
2022/09/03 01:25:37;;;;;;;3.65;2.40;;;;;;;16.13;47.38;100994.19;5047094;28;20049;-77
2022/09/03 01:28:32;;;;;;;5.90;2.50;;;;;;;16.11;47.77;100989.00;5046765;28;20045;-77
2022/09/03 01:31:23;;;;;;;4.22;2.30;;;;;;;16.09;47.54;100993.44;5038332;28;20196;-76
2022/09/03 01:34:19;;;;;;;4.23;2.50;;;;;;;16.07;47.67;100992.66;5049545;28;20031;-76
2022/09/03 01:37:17;;;;;;;3.78;2.20;;;;;;;16.03;47.86;100991.13;5050575;28;20821;-76
2022/09/03 01:39:48;;;;;;;3.90;2.35;;;;;;;15.98;48.22;100993.94;5051848;28;20031;-76
2022/09/03 01:42:53;;;;;;;4.45;2.70;;;;;;;15.98;47.87;100998.34;5052000;28;20079;-76
2022/09/03 01:45:33;;;;;;;2.70;2.15;;;;;;;15.93;48.75;100999.41;5045450;28;20017;-76
2022/09/03 01:48:36;;;;;;;3.70;2.30;;;;;;;15.90;48.05;100996.91;5050175;28;20396;-77
2022/09/03 01:51:21;;;;;;;5.72;2.67;;;;;;;15.89;48.07;100994.38;5049447;28;20032;-76
2022/09/03 01:54:09;;;;;;;4.95;2.60;;;;;;;15.86;48.73;100991.91;5049949;28;20396;-76
2022/09/03 01:57:13;;;;;;;3.70;2.60;;;;;;;15.83;48.26;100995.50;5050055;28;20099;-76
2022/09/03 01:59:57;;;;;;;6.20;2.63;;;;;;;15.80;48.80;100990.38;5050214;28;20027;-77
2022/09/03 02:02:25;;;;;;;6.07;2.90;;;;;;;15.77;49.36;100982.63;5046248;28;20163;-77
2022/09/03 02:05:07;;;;;;;3.92;2.55;;;;;;;15.75;48.79;100981.84;5050971;28;20135;-77
2022/09/03 02:07:40;;;;;;;6.03;2.50;;;;;;;15.74;49.15;100990.63;5047601;28;20060;-77
2022/09/03 02:10:16;;;;;;;3.78;2.28;;;;;;;15.73;48.79;100987.19;5049501;28;20486;-76
2022/09/03 02:12:48;;;;;;;4.55;2.35;;;;;;;15.71;49.33;100982.94;5049911;28;20056;-76
2022/09/03 02:15:18;;;;;;;4.20;2.20;;;;;;;15.69;49.12;100976.91;5048561;28;20024;-77
2022/09/03 02:17:46;;;;;;;5.25;2.38;;;;;;;15.67;49.40;100976.13;5043457;28;20408;-76
2022/09/03 02:20:18;;;;;;;5.45;2.40;;;;;;;15.65;49.31;100978.78;5049832;28;20468;-76
2022/09/03 02:22:45;;;;;;;5.90;2.60;;;;;;;15.64;49.46;100974.47;5046783;28;20028;-76
2022/09/03 02:25:12;;;;;;;7.50;2.40;;;;;;;15.62;49.42;100974.53;5048752;28;20048;-77
2022/09/03 02:27:37;;;;;;;7.75;2.50;;;;;;;15.60;49.59;100975.53;5045815;28;20112;-76
2022/09/03 02:30:04;;;;;;;4.75;2.70;;;;;;;15.58;49.64;100975.59;5045228;28;20152;-76
2022/09/03 02:32:29;;;;;;;3.80;2.25;;;;;;;15.56;49.63;100977.44;5043017;28;20085;-76
2022/09/03 02:34:55;;;;;;;4.90;2.47;;;;;;;15.54;49.64;100979.25;5045268;28;20114;-76
2022/09/03 02:37:21;;;;;;;3.75;2.50;;;;;;;15.52;49.59;100981.13;5050748;28;20094;-76
2022/09/03 02:39:47;;;;;;;4.97;2.10;;;;;;;15.51;49.90;100982.06;5042935;28;20033;-77
2022/09/03 02:42:13;;;;;;;5.20;2.13;;;;;;;15.51;49.76;100973.31;5050178;28;20035;-76
2022/09/03 02:44:47;;;;;;;2.88;2.08;;;;;;;15.46;49.51;100976.16;5048456;28;20158;-77
2022/09/03 02:47:13;;;;;;;4.00;2.55;;;;;;;15.44;49.83;100977.97;5045899;28;20032;-76
2022/09/03 02:49:39;;;;;;;3.58;2.22;;;;;;;15.41;49.95;100971.13;5047652;28;20025;-76
2022/09/03 02:52:08;;;;;;;4.15;2.33;;;;;;;15.40;49.93;100974.66;5046781;28;20028;-76
2022/09/03 02:54:38;;;;;;;4.35;2.50;;;;;;;15.36;50.05;100972.25;5048233;28;20081;-77
2022/09/03 02:57:07;;;;;;;6.72;2.55;;;;;;;15.33;50.27;100971.44;5044732;28;20048;-76
2022/09/03 02:59:33;;;;;;;4.90;2.40;;;;;;;15.32;50.19;100976.75;5049228;28;20024;-76
2022/09/03 03:01:58;;;;;;;3.83;2.50;;;;;;;15.30;50.22;100971.59;5048331;28;20037;-76
2022/09/03 03:04:24;;;;;;;3.97;2.40;;;;;;;15.29;50.45;100974.25;5048323;28;20021;-76
2022/09/03 03:06:52;;;;;;;3.78;2.45;;;;;;;15.29;50.31;100980.34;5047573;28;20036;-76
2022/09/03 03:09:17;;;;;;;4.32;2.60;;;;;;;15.29;50.32;100969.00;5046319;28;20028;-76
2022/09/03 03:11:43;;;;;;;6.60;2.50;;;;;;;15.29;50.12;100979.50;5047501;28;20104;-76
2022/09/03 03:14:09;;;;;;;4.05;2.40;;;;;;;15.27;50.49;100979.56;5045144;28;20461;-76
2022/09/03 03:16:34;;;;;;;3.35;2.40;;;;;;;15.24;50.43;100977.06;5047949;28;20498;-77
2022/09/03 03:19:00;;;;;;;3.78;2.40;;;;;;;15.24;50.62;100971.84;5050010;28;20155;-76
2022/09/03 03:21:25;;;;;;;4.18;2.40;;;;;;;15.23;50.58;100970.13;5051296;28;20033;-76
2022/09/03 03:23:51;;;;;;;4.60;2.30;;;;;;;15.22;50.68;100968.44;5046689;28;20018;-76
2022/09/03 03:26:18;;;;;;;4.60;2.33;;;;;;;15.21;50.46;100971.97;5047110;28;20033;-76
2022/09/03 03:28:45;;;;;;;4.82;2.53;;;;;;;15.17;50.72;100978.28;5049789;28;20028;-76
2022/09/03 03:31:14;;;;;;;3.70;2.40;;;;;;;15.15;50.60;100973.09;5049799;28;20041;-76
2022/09/03 03:33:39;;;;;;;4.15;2.42;;;;;;;15.13;50.27;100968.84;5047323;28;20032;-76
2022/09/03 03:36:10;;;;;;;8.07;2.22;;;;;;;15.13;50.49;100974.06;5049683;28;20029;-77
2022/09/03 03:38:36;;;;;;;5.90;2.22;;;;;;;15.11;50.76;100974.16;5044944;28;20051;-76
2022/09/03 03:41:14;;;;;;;3.50;2.20;;;;;;;15.11;50.47;100981.16;5049856;28;20479;-76
2022/09/03 03:43:40;;;;;;;3.97;2.40;;;;;;;15.08;50.94;100981.28;5047137;28;20049;-77
2022/09/03 03:46:05;;;;;;;4.07;2.15;;;;;;;15.07;50.92;100975.19;5044543;28;20478;-76
2022/09/03 03:48:31;;;;;;;5.25;2.50;;;;;;;15.04;50.92;100975.31;5044099;28;20039;-76
2022/09/03 03:51:03;;;;;;;3.88;2.40;;;;;;;15.02;51.08;100977.16;5043050;28;20479;-76
2022/09/03 03:53:29;;;;;;;3.97;2.60;;;;;;;14.99;51.37;100978.16;5047546;28;20025;-76
2022/09/03 03:55:57;;;;;;;4.72;2.45;;;;;;;14.98;51.23;100978.19;5045477;28;20025;-76
2022/09/03 03:58:23;;;;;;;3.90;2.60;;;;;;;14.97;51.41;100986.97;5042624;28;20204;-77
2022/09/03 04:00:51;;;;;;;3.88;2.70;;;;;;;14.95;52.45;100984.41;5045149;28;20282;-76
2022/09/03 04:03:18;;;;;;;4.30;2.97;;;;;;;14.94;52.46;100980.09;5046549;28;20051;-76
2022/09/03 04:05:53;;;;;;;5.05;2.75;;;;;;;14.95;51.67;100983.56;5046125;28;20108;-76
2022/09/03 04:08:18;;;;;;;6.38;2.80;;;;;;;14.92;53.28;100976.69;5040165;28;20025;-76
2022/09/03 04:10:43;;;;;;;3.80;2.75;;;;;;;14.92;51.55;100971.44;5049004;28;20047;-76
2022/09/03 04:13:08;;;;;;;4.07;2.65;;;;;;;14.91;51.67;100974.13;5045667;28;20776;-76
2022/09/03 04:15:33;;;;;;;5.93;2.75;;;;;;;14.88;52.25;100975.09;5043452;28;20041;-76
2022/09/03 04:17:59;;;;;;;4.90;2.25;;;;;;;14.85;52.14;100970.00;5043918;28;20049;-76
2022/09/03 04:20:24;;;;;;;3.90;2.45;;;;;;;14.83;52.21;100971.84;5046977;28;20373;-76
2022/09/03 04:22:50;;;;;;;4.35;2.63;;;;;;;14.79;52.34;100971.09;5049139;28;20033;-76
2022/09/03 04:25:15;;;;;;;6.82;2.60;;;;;;;14.76;52.63;100962.53;5047055;28;20327;-76
2022/09/03 04:27:40;;;;;;;3.75;2.50;;;;;;;14.75;52.26;100963.44;5047484;28;20028;-76
2022/09/03 04:30:06;;;;;;;3.28;2.13;;;;;;;14.75;52.49;100963.44;5050659;28;20039;-76
2022/09/03 04:35:15;;;;;;;8.05;2.70;;;;;;;14.72;52.80;100964.44;5045340;28;20180;-76
2022/09/03 04:37:40;;;;;;;3.95;2.30;;;;;;;14.70;52.96;100961.00;5051310;28;20103;-76
2022/09/03 04:40:06;;;;;;;4.05;2.42;;;;;;;14.68;52.93;100963.72;5045817;28;20037;-76
2022/09/03 04:42:31;;;;;;;5.15;2.60;;;;;;;14.67;53.04;100961.97;5050751;28;20456;-76
2022/09/03 04:44:56;;;;;;;3.15;2.15;;;;;;;14.65;52.81;100966.41;5045162;28;20013;-76
2022/09/03 04:47:22;;;;;;;3.80;2.33;;;;;;;14.63;52.92;100960.38;5045495;28;20030;-76
2022/09/03 04:49:47;;;;;;;4.57;2.65;;;;;;;14.60;52.93;100960.50;5050425;28;20048;-76
2022/09/03 04:52:12;;;;;;;4.45;2.40;;;;;;;14.59;53.20;100964.03;5049663;28;20027;-76
2022/09/03 04:54:38;;;;;;;5.80;2.40;;;;;;;14.56;53.43;100961.53;5048626;28;20052;-76
2022/09/03 04:57:03;;;;;;;6.13;2.20;;;;;;;14.56;53.33;100961.53;5048777;28;20029;-76
2022/09/03 04:59:28;;;;;;;5.55;2.30;;;;;;;14.55;53.36;100979.03;5046228;28;20530;-76
2022/09/03 05:01:55;;;;;;;3.42;2.13;;;;;;;14.54;53.46;100968.59;5044214;28;20114;-77
2022/09/03 05:04:20;;;;;;;3.08;2.35;;;;;;;14.54;53.43;100977.31;5046785;28;20483;-76
2022/09/03 05:06:46;;;;;;;5.40;2.50;;;;;;;14.53;54.41;100970.38;5044919;28;20058;-76
2022/09/03 05:09:11;;;;;;;4.75;2.13;;;;;;;14.53;54.04;100974.75;5042793;28;20024;-76
2022/09/03 05:11:36;;;;;;;4.63;2.22;;;;;;;14.54;53.59;100971.22;5048933;28;20159;-76
2022/09/03 05:14:04;;;;;;;5.45;2.28;;;;;;;14.52;53.81;100973.03;5045696;28;20040;-76
2022/09/03 05:16:29;;;;;;;6.15;2.20;;;;;;;14.53;53.61;100972.13;5050098;28;20055;-76
2022/09/03 05:18:58;;;;;;;4.78;2.20;;;;;;;14.53;53.52;100969.50;5047593;28;20045;-76
2022/09/03 05:21:24;;;;;;;3.78;2.28;;;;;;;14.53;53.46;100969.50;5045908;28;20036;-76
2022/09/03 05:23:51;;;;;;;7.45;2.35;;;;;;;14.54;53.84;100968.59;5053338;28;20032;-76
2022/09/03 05:26:19;;;;;;;6.15;2.50;;;;;;;14.54;53.72;100968.59;5048315;28;20090;-76
2022/09/03 05:28:45;;;;;;;4.07;2.28;;;;;;;14.56;53.59;100974.63;5049761;28;20578;-76
2022/09/03 05:31:13;;;;;;;4.75;2.35;;;;;;;14.60;53.69;100970.97;5045405;28;20049;-76
2022/09/03 05:33:49;;;;;;;4.65;2.22;;;;;;;14.62;53.88;100969.16;5044092;28;20040;-76
2022/09/03 05:36:21;;;;;;;4.53;2.13;;;;;;;14.64;53.57;100967.31;5045936;28;20025;-76
2022/09/03 05:38:48;;;;;;;2.78;2.10;;;;;;;14.68;53.74;100966.31;5047620;28;20085;-76
2022/09/03 05:41:15;;;;;;;5.75;2.30;;;;;;;14.71;53.58;100968.78;5045148;28;20025;-76
2022/09/03 05:43:41;;;;;;;6.68;2.25;;;;;;;14.76;53.78;100973.00;5034220;28;20418;-76
2022/09/03 05:46:12;;;;;;;6.03;2.20;;;;;;;14.80;54.07;100971.97;5049273;28;20035;-76
2022/09/03 05:48:39;;;;;;;4.22;2.22;;;;;;;14.83;53.57;100956.97;5051332;28;20025;-76
2022/09/03 05:51:06;;;;;;;3.53;2.00;;;;;;;14.89;53.99;100963.72;5053692;28;20025;-76
2022/09/03 05:53:34;;;;;;;4.95;2.05;;;;;;;14.93;53.56;100962.66;5049678;28;20030;-76
2022/09/03 05:56:04;;;;;;;3.63;2.08;;;;;;;14.97;53.80;100969.50;5046704;28;20476;-76
2022/09/03 05:58:34;;;;;;;4.22;2.30;;;;;;;15.01;53.67;100968.47;5050406;28;20114;-76
2022/09/03 06:01:09;;;;;;;5.40;2.20;;;;;;;15.07;53.30;100969.09;5048946;28;20489;-76
2022/09/03 06:03:34;;;;;;;4.53;2.30;;;;;;;15.11;53.61;100975.91;5046952;28;20013;-76
2022/09/03 06:05:59;;;;;;;4.80;2.45;;;;;;;15.14;53.46;100971.38;5048506;28;20498;-76
2022/09/03 06:08:25;;;;;;;4.40;2.00;;;;;;;15.16;53.26;100972.16;5052114;28;20036;-76
2022/09/03 06:10:57;;;;;;;5.25;2.30;;;;;;;15.20;53.46;100974.66;5053469;28;20549;-76
2022/09/03 06:13:22;;;;;;;4.05;2.15;;;;;;;15.25;53.63;100968.28;5048365;28;20388;-76
2022/09/03 06:15:48;;;;;;;5.18;2.10;;;;;;;15.31;53.19;100967.19;5051571;28;20029;-76
2022/09/03 06:18:13;;;;;;;6.80;2.30;;;;;;;15.38;53.84;100968.63;5050196;28;20020;-76
2022/09/03 06:20:38;;;;;;;6.20;2.20;;;;;;;15.45;53.46;100974.44;5050608;28;20102;-76
2022/09/03 06:23:04;;;;;;;4.35;2.03;;;;;;;15.53;53.25;100967.09;5050260;28;20091;-76
2022/09/03 06:25:30;;;;;;;4.50;2.05;;;;;;;15.62;53.58;100966.69;5049157;28;20039;-76
2022/09/03 06:27:55;;;;;;;4.70;2.00;;;;;;;15.73;52.43;100973.19;5049956;28;20477;-76
2022/09/03 06:30:21;;;;;;;7.25;2.17;;;;;;;15.83;52.70;100974.50;5051713;28;20112;-76
2022/09/03 06:32:49;;;;;;;4.63;2.03;;;;;;;15.96;52.52;100985.31;5049700;28;20033;-76
2022/09/03 06:35:14;;;;;;;6.25;2.00;;;;;;;16.10;52.46;100978.56;5047768;28;20107;-76
2022/09/03 06:37:40;;;;;;;4.97;2.08;;;;;;;16.21;51.52;100977.16;5049738;28;20467;-76
2022/09/03 06:40:08;;;;;;;6.15;2.10;;;;;;;16.33;51.32;100972.22;5052840;28;20024;-76
2022/09/03 06:42:33;;;;;;;3.97;2.10;;;;;;;16.41;51.13;100980.56;5051373;28;20064;-76
2022/09/03 06:44:58;;;;;;;3.95;1.98;;;;;;;16.51;50.37;100971.34;5051539;28;20056;-76
2022/09/03 06:47:24;;;;;;;4.53;1.90;;;;;;;16.60;50.61;100974.44;5049417;28;20037;-76
2022/09/03 06:49:49;;;;;;;6.25;1.70;;;;;;;16.71;50.87;100981.78;5031975;28;20029;-77
2022/09/03 06:52:14;;;;;;;6.05;1.83;;;;;;;16.77;49.99;100984.97;5052017;28;20028;-76
2022/09/03 06:54:40;;;;;;;3.95;1.60;;;;;;;16.87;49.58;100982.72;5049451;28;20437;-76
2022/09/03 06:57:05;;;;;;;5.88;1.70;;;;;;;16.97;49.70;100973.50;5029806;28;20246;-76
2022/09/03 06:59:30;;;;;;;4.80;1.90;;;;;;;17.07;49.94;100978.28;5049441;28;20076;-76
2022/09/03 07:01:57;;;;;;;5.18;1.90;;;;;;;17.18;50.30;100980.34;5046056;28;20306;-76
2022/09/03 07:04:24;;;;;;;3.33;1.60;;;;;;;17.29;49.16;100978.00;5042741;28;20059;-76
2022/09/03 07:06:49;;;;;;;2.67;1.50;;;;;;;17.38;51.02;100977.56;5048726;28;20027;-76
2022/09/03 07:09:16;;;;;;;4.63;1.42;;;;;;;17.44;49.56;100977.22;5043685;28;20025;-76
2022/09/03 07:11:45;;;;;;;2.55;1.60;;;;;;;17.52;50.51;100978.59;5031372;28;20052;-76
2022/09/03 07:14:12;;;;;;;2.33;1.45;;;;;;;17.58;52.32;100983.56;5023795;28;20440;-76
2022/09/03 07:16:37;;;;;;;2.65;1.50;;;;;;;17.64;49.66;100977.09;5051978;28;20099;-76
2022/09/03 07:19:04;;;;;;;2.85;1.55;;;;;;;17.67;49.23;100977.78;5050496;28;20112;-76
2022/09/03 07:21:35;;;;;;;3.95;1.58;;;;;;;17.72;49.53;100974.91;5032169;28;20491;-76
2022/09/03 07:24:01;;;;;;;2.90;1.50;;;;;;;17.77;48.25;100977.28;5051091;28;20096;-76
2022/09/03 07:26:30;;;;;;;3.00;1.58;;;;;;;17.80;50.13;100977.97;5045815;28;20025;-77
2022/09/03 07:28:56;;;;;;;3.47;1.48;;;;;;;17.84;49.54;100968.13;5051090;28;20029;-76
2022/09/03 07:31:25;;;;;;;5.93;1.50;;;;;;;17.87;50.73;100973.22;5051101;28;20044;-76
2022/09/03 07:33:54;;;;;;;3.00;1.20;;;;;;;17.91;50.67;100969.50;5051561;28;20573;-76
2022/09/03 07:36:20;;;;;;;3.22;1.23;;;;;;;17.97;49.58;100971.78;5046491;28;20108;-77
2022/09/03 07:38:46;;;;;;;6.53;1.38;;;;;;;17.99;48.75;100969.94;5047694;28;20071;-76
2022/09/03 07:41:13;;;;;;;5.63;1.50;;;;;;;18.03;48.59;100968.84;5047621;28;20032;-76
2022/09/03 07:43:48;;;;;;;2.92;1.25;;;;;;;18.08;47.96;100979.13;5048741;28;20025;-76
2022/09/03 07:46:22;;;;;;;1.92;1.40;;;;;;;18.11;48.00;100975.47;5044070;28;20056;-76
2022/09/03 07:48:58;;;;;;;4.50;1.80;;;;;;;18.14;47.79;100978.78;5025322;28;20131;-76
2022/09/03 07:51:26;;;;;;;3.78;1.58;;;;;;;18.21;48.52;100981.94;5044891;28;20116;-76
2022/09/03 07:53:56;;;;;;;3.78;1.50;;;;;;;18.22;46.66;100981.00;5040921;28;20031;-76
2022/09/03 07:56:22;;;;;;;3.80;1.50;;;;;;;18.27;46.97;100986.88;5043493;28;20021;-76
2022/09/03 07:58:47;;;;;;;4.57;1.60;;;;;;;18.29;46.54;100984.13;5042763;28;20375;-76
2022/09/03 08:01:18;;;;;;;2.08;1.42;;;;;;;18.32;46.39;100984.81;5048034;28;20108;-76
2022/09/03 08:03:46;;;;;;;3.72;1.70;;;;;;;18.39;47.79;100981.84;5044342;28;20021;-76
2022/09/03 08:06:13;;;;;;;4.45;1.63;;;;;;;18.39;46.42;100981.84;5043019;28;20048;-76
2022/09/03 08:08:39;;;;;;;2.88;1.80;;;;;;;18.44;47.47;100985.06;5043564;28;20028;-76
2022/09/03 08:11:12;;;;;;;7.10;1.98;;;;;;;18.48;47.35;100978.66;5044713;28;20029;-76
2022/09/03 08:13:39;;;;;;;3.10;1.48;;;;;;;18.53;47.23;100981.88;5044891;28;20032;-76
2022/09/03 08:16:05;;;;;;;3.58;1.60;;;;;;;18.60;47.77;100985.88;5043248;28;20112;-77
2022/09/03 08:18:36;;;;;;;3.75;1.60;;;;;;;18.63;46.38;100983.06;5042977;28;20040;-76
2022/09/03 08:21:13;;;;;;;2.22;1.40;;;;;;;18.66;47.31;100987.31;5040620;28;20032;-76
2022/09/03 08:23:40;;;;;;;2.08;1.40;;;;;;;18.72;49.95;100986.09;5047132;28;20421;-76
2022/09/03 08:26:07;;;;;;;3.30;1.60;;;;;;;18.77;47.40;100986.69;5039315;28;20384;-76
2022/09/03 08:28:33;;;;;;;3.65;1.42;;;;;;;18.83;46.43;100993.41;5047082;28;20052;-76
2022/09/03 08:31:26;;;;;;;1.85;1.38;;;;;;;18.90;47.14;100995.59;5047395;28;20033;-77
2022/09/03 08:33:53;;;;;;;3.70;1.67;;;;;;;18.98;46.33;101003.06;5027256;28;20036;-76
2022/09/03 08:36:22;;;;;;;4.13;1.50;;;;;;;19.04;46.70;100993.94;5050690;28;20048;-76
2022/09/03 08:38:53;;;;;;;5.65;1.60;;;;;;;19.12;46.63;100994.34;5041959;28;20025;-77
2022/09/03 08:41:22;;;;;;;3.78;1.60;;;;;;;19.18;45.97;100999.25;5039091;28;20021;-76
2022/09/03 08:43:50;;;;;;;6.63;1.50;;;;;;;19.25;47.25;101000.59;5040842;28;20029;-77
2022/09/03 08:46:16;;;;;;;4.07;1.50;;;;;;;19.31;45.87;100993.22;5021517;28;20099;-76
2022/09/03 08:48:41;;;;;;;3.15;1.20;;;;;;;19.36;46.19;100999.09;5044914;28;20452;-76
2022/09/03 08:51:09;;;;;;;4.65;1.70;;;;;;;19.40;46.63;101003.25;5045761;28;20025;-76
2022/09/03 08:53:47;;;;;;;2.53;1.35;;;;;;;19.49;48.06;101002.66;5048389;28;20511;-76
2022/09/03 08:56:23;;;;;;;3.17;1.40;;;;;;;19.54;48.21;100999.78;5047845;28;20479;-76
2022/09/03 08:58:48;;;;;;;2.17;1.48;;;;;;;19.60;46.83;100999.38;5048862;28;20475;-76
2022/09/03 09:01:51;;;;;;;3.03;1.52;;;;;;;19.65;46.89;101001.72;5048352;28;20031;-76
2022/09/03 09:04:25;;;;;;;4.38;1.58;;;;;;;19.68;45.90;100996.25;5045723;28;20519;-76
2022/09/03 09:07:11;;;;;;;2.03;1.30;;;;;;;19.71;47.61;100996.94;5044157;28;20386;-77
2022/09/03 09:09:54;;;;;;;3.75;1.20;;;;;;;19.76;46.42;100999.28;5052041;28;20052;-76
2022/09/03 09:12:37;;;;;;;4.68;1.17;;;;;;;19.83;47.39;101003.22;5053016;28;20099;-77
2022/09/03 09:15:18;;;;;;;4.05;1.27;;;;;;;19.90;45.40;100994.97;5051842;28;20029;-76
2022/09/03 09:17:55;;;;;;;2.17;1.20;;;;;;;19.98;45.90;101000.63;5049215;28;20028;-76
2022/09/03 09:20:46;;;;;;;3.03;1.30;;;;;;;20.06;45.86;100998.31;5054299;28;20421;-76
2022/09/03 09:23:14;;;;;;;4.68;1.30;;;;;;;20.13;44.07;100994.38;5051995;28;20044;-77
2022/09/03 09:25:48;;;;;;;1.80;1.33;;;;;;;20.20;44.52;100991.31;5050826;28;20035;-77
2022/09/03 09:28:18;;;;;;;4.68;1.70;;;;;;;20.26;44.90;100996.22;5040664;28;20031;-77
2022/09/03 09:30:46;;;;;;;2.28;1.27;;;;;;;20.31;44.90;101000.25;5047319;28;20045;-80
2022/09/03 09:33:12;;;;;;;2.63;1.30;;;;;;;20.34;43.62;100993.91;5030728;28;20438;-77
2022/09/03 09:35:41;;;;;;;3.47;1.33;;;;;;;20.40;44.19;100993.53;5035443;28;20082;-76
2022/09/03 09:38:06;;;;;;;3.88;1.40;;;;;;;20.43;45.62;100990.69;5045185;28;20031;-77
2022/09/03 09:40:38;;;;;;;2.70;1.40;;;;;;;20.45;44.48;100991.44;5048979;28;20029;-77
2022/09/03 09:43:14;;;;;;;;;;;;;;;20.51;44.93;100989.31;5047892;28;20028;-77
2022/09/03 09:45:43;;;;;;;2.83;1.50;;;;;;;20.58;43.55;100991.47;5031734;28;20275;-77
2022/09/03 09:48:21;;;;;;;2.38;1.38;;;;;;;20.63;44.62;100988.53;5051346;28;20056;-77
2022/09/03 09:50:46;;;;;;;5.65;1.38;;;;;;;20.66;43.96;100987.47;5050184;28;20086;-77
2022/09/03 09:53:16;;;;;;;4.38;1.40;;;;;;;20.71;43.55;100991.50;5050485;28;20485;-77
2022/09/03 09:56:19;;;;;;;5.22;1.30;;;;;;;20.77;44.38;101006.13;5032673;28;20029;-76
2022/09/03 09:58:44;;;;;;;3.83;1.30;;;;;;;20.87;43.83;100994.00;5047654;28;20025;-77
2022/09/03 10:01:20;;;;;;;1.85;1.33;;;;;;;20.96;43.72;100997.84;5025507;28;20040;-76
2022/09/03 10:03:55;;;;;;;3.47;1.20;;;;;;;20.98;43.09;101001.22;5051094;28;20024;-77
2022/09/03 10:09:16;;;;;;;3.42;1.30;;;;;;;21.04;42.28;101002.59;5048250;28;20503;-76
2022/09/03 10:11:45;;;;;;;2.25;1.48;;;;;;;21.08;43.41;101002.28;5049593;28;20102;-76
2022/09/03 10:14:21;;;;;;;5.72;1.35;;;;;;;21.15;43.08;100997.44;5049695;28;20028;-76
2022/09/03 10:16:53;;;;;;;3.58;1.40;;;;;;;21.19;41.58;101000.69;5046775;28;20055;-77
2022/09/03 10:19:22;;;;;;;2.30;1.30;;;;;;;21.21;41.64;100989.09;5046924;28;20021;-77
2022/09/03 10:21:58;;;;;;;3.10;1.33;;;;;;;21.27;41.70;100985.16;5047355;28;20099;-77
2022/09/03 10:24:40;;;;;;;2.78;1.20;;;;;;;21.32;43.18;100979.53;5042331;28;20045;-77
2022/09/03 10:27:09;;;;;;;3.53;1.20;;;;;;;21.37;41.17;100988.03;5041501;28;20528;-77
2022/09/03 10:29:34;;;;;;;1.90;1.30;;;;;;;21.43;42.05;100981.44;5041955;28;20028;-78
2022/09/03 10:32:08;;;;;;;2.42;0.95;;;;;;;21.49;43.15;100986.31;5039005;28;20041;-76
2022/09/03 10:34:56;;;;;;;2.55;1.20;;;;;;;21.49;41.84;100984.50;5050866;28;20037;-79
2022/09/03 10:37:37;;;;;;;2.42;1.20;;;;;;;21.51;41.51;100989.72;5049759;28;20025;-78
2022/09/03 10:40:27;;;;;;;3.03;1.42;;;;;;;21.57;42.61;100983.13;5049041;28;20023;-76
2022/09/03 10:43:20;;;;;;;3.50;1.80;;;;;;;21.62;42.07;100981.03;5034149;28;20024;-79
2022/09/03 10:46:02;;;;;;;2.28;1.10;;;;;;;21.65;43.39;100976.38;5049633;28;20029;-76
2022/09/03 10:49:13;;;;;;;2.53;1.45;;;;;;;21.69;41.56;100977.00;5051127;28;20071;-76
2022/09/03 10:51:45;;;;;;;4.40;1.48;;;;;;;21.72;41.06;100970.63;5047213;28;20021;-76
2022/09/03 10:54:18;;;;;;;2.83;1.38;;;;;;;21.76;41.61;100972.97;5044818;28;20159;-76
2022/09/03 10:57:14;;;;;;;3.03;1.20;;;;;;;21.81;42.15;100975.28;5043273;28;20043;-76
2022/09/03 11:00:07;;;;;;;2.75;1.33;;;;;;;21.88;41.81;100981.81;5042759;28;20515;-76
2022/09/03 11:02:48;;;;;;;3.83;1.30;;;;;;;21.92;40.86;100974.53;5044161;28;20106;-77
2022/09/03 11:05:20;;;;;;;3.60;1.30;;;;;;;21.97;41.26;100975.88;5044357;28;20025;-76
2022/09/03 11:07:57;;;;;;;4.28;1.65;;;;;;;22.02;41.00;100980.00;5043522;28;20128;-77
2022/09/03 11:10:33;;;;;;;5.03;1.30;;;;;;;22.06;40.74;100968.22;5048686;28;20029;-80
2022/09/03 11:13:03;;;;;;;2.85;1.23;;;;;;;22.09;40.69;100968.00;5043652;28;20033;-76
2022/09/03 11:15:53;;;;;;;2.75;1.42;;;;;;;22.13;40.40;100969.47;5045203;28;20036;-76
2022/09/03 11:18:27;;;;;;;2.40;1.20;;;;;;;22.18;41.08;100970.00;5042305;28;20048;-76
2022/09/03 11:21:00;;;;;;;2.65;1.20;;;;;;;22.24;42.13;100966.03;5036020;28;20083;-76
2022/09/03 11:23:28;;;;;;;3.17;1.40;;;;;;;22.26;40.99;100970.25;5043059;28;20032;-76
2022/09/03 11:26:02;;;;;;;2.05;1.17;;;;;;;22.25;41.66;100968.56;5041530;28;20037;-76
2022/09/03 11:29:03;;;;;;;2.00;1.10;;;;;;;22.25;42.24;100975.69;5039198;28;21261;-76
2022/09/03 11:31:56;;;;;;;2.25;1.20;;;;;;;22.27;41.66;100969.31;4963535;28;20055;-76
2022/09/03 11:34:44;;;;;;;1.73;1.38;;;;;;;22.31;40.41;100974.38;5042823;28;20049;-76
2022/09/03 11:37:20;;;;;;;3.25;1.08;;;;;;;22.33;39.70;100964.53;5044441;28;20040;-76
2022/09/03 11:40:08;;;;;;;2.30;1.00;;;;;;;22.35;41.24;100968.75;5044183;28;20032;-76
2022/09/03 11:42:37;;;;;;;3.53;1.30;;;;;;;22.37;41.69;100963.34;5041153;28;20494;-76
2022/09/03 11:45:19;;;;;;;1.83;1.10;;;;;;;22.35;41.36;100958.13;5040399;28;20063;-78
2022/09/03 11:47:45;;;;;;;;;;;;;;;22.40;41.04;100955.13;5030195;28;20129;-76
2022/09/03 11:50:20;;;;;;;3.58;1.15;;;;;;;22.39;40.33;100948.13;5039337;28;19981;-79
2022/09/03 11:52:50;;;;;;;2.47;1.15;;;;;;;22.41;41.15;100947.09;5042187;28;20116;-77
2022/09/03 11:55:31;;;;;;;1.88;1.23;;;;;;;22.42;41.66;100947.94;5041154;28;20127;-76
2022/09/03 11:57:57;;;;;;;3.22;1.55;;;;;;;22.42;39.89;100943.50;5035019;28;20041;-76